createdAt,value
2023-08-12T00:00:12.768Z,20.70
2023-08-12T00:02:41.789Z,20.80
2023-08-12T00:05:12.171Z,20.70
2023-08-12T00:07:43.682Z,20.70
2023-08-12T00:10:13.683Z,20.70
2023-08-12T00:12:42.041Z,20.70
2023-08-12T00:15:11.898Z,20.70
2023-08-12T00:17:42.971Z,20.60
2023-08-12T00:20:13.766Z,20.60
2023-08-12T00:22:46.459Z,20.70
2023-08-12T00:25:15.052Z,20.60
2023-08-12T00:27:43.403Z,20.50
2023-08-12T00:30:12.251Z,20.50
2023-08-12T00:32:42.191Z,20.50
2023-08-12T00:35:10.947Z,20.50
2023-08-12T00:37:39.142Z,20.40
2023-08-12T00:40:10.397Z,20.30
2023-08-12T00:42:38.636Z,20.30
2023-08-12T00:45:12.444Z,20.30
2023-08-12T00:47:40.864Z,20.20
2023-08-12T00:50:11.324Z,20.30
2023-08-12T00:52:39.981Z,20.30
2023-08-12T00:55:10.378Z,20.30
2023-08-12T00:57:38.767Z,20.30
2023-08-12T01:00:09.283Z,20.30
2023-08-12T01:02:37.810Z,20.20
2023-08-12T01:05:06.886Z,20.20
2023-08-12T01:07:35.538Z,20.20
2023-08-12T01:10:03.978Z,20.20
2023-08-12T01:12:39.050Z,20.20
2023-08-12T01:15:11.522Z,20.30
2023-08-12T01:17:43.690Z,20.30
2023-08-12T01:20:14.145Z,20.20
2023-08-12T01:22:44.230Z,20.20
2023-08-12T01:25:14.220Z,20.20
2023-08-12T01:27:42.513Z,20.20
2023-08-12T01:30:12.208Z,20.20
2023-08-12T01:32:45.428Z,20.20
2023-08-12T01:35:19.718Z,20.20
2023-08-12T01:37:48.873Z,20.20
2023-08-12T01:40:20.551Z,20.20
2023-08-12T01:42:50.326Z,20.20
2023-08-12T01:45:20.486Z,20.10
2023-08-12T01:47:52.329Z,20.10
2023-08-12T01:50:22.822Z,20.10
2023-08-12T01:52:51.101Z,20.10
2023-08-12T01:55:21.184Z,20.00
2023-08-12T01:57:49.382Z,20.00
2023-08-12T02:00:18.473Z,20.00
2023-08-12T02:02:48.370Z,20.00
2023-08-12T02:05:17.063Z,20.00
2023-08-12T02:07:46.560Z,20.00
2023-08-12T02:10:16.334Z,20.00
2023-08-12T02:12:45.907Z,20.00
2023-08-12T02:15:14.333Z,20.00
2023-08-12T02:17:42.694Z,20.00
2023-08-12T02:20:11.785Z,20.00
2023-08-12T02:22:40.350Z,20.10
2023-08-12T02:25:09.882Z,20.10
2023-08-12T02:27:38.101Z,20.10
2023-08-12T02:30:09.163Z,20.00
2023-08-12T02:32:37.552Z,20.00
2023-08-12T02:35:06.165Z,20.00
2023-08-12T02:37:34.455Z,19.90
2023-08-12T02:40:05.857Z,20.00
2023-08-12T02:42:34.220Z,19.90
2023-08-12T02:45:02.666Z,20.00
2023-08-12T02:47:32.353Z,19.90
2023-08-12T02:50:00.540Z,19.90
2023-08-12T02:52:29.030Z,20.00
2023-08-12T02:54:57.539Z,19.90
2023-08-12T02:57:25.798Z,19.90
2023-08-12T02:59:54.279Z,19.90
2023-08-12T03:02:22.625Z,19.80
2023-08-12T03:04:52.353Z,19.80
2023-08-12T03:07:20.629Z,19.80
2023-08-12T03:09:49.043Z,19.80
2023-08-12T03:12:17.250Z,19.70
2023-08-12T03:14:45.653Z,19.70
2023-08-12T03:17:14.254Z,19.70
2023-08-12T03:19:42.652Z,19.60
2023-08-12T03:22:12.375Z,19.60
2023-08-12T03:24:40.782Z,19.60
2023-08-12T03:27:09.106Z,19.50
2023-08-12T03:29:37.464Z,19.60
2023-08-12T03:32:06.270Z,19.50
2023-08-12T03:34:34.626Z,19.50
2023-08-12T03:37:02.834Z,19.50
2023-08-12T03:39:32.807Z,19.50
2023-08-12T03:42:01.030Z,19.50
2023-08-12T03:44:29.370Z,19.40
2023-08-12T03:46:57.674Z,19.50
2023-08-12T03:49:25.927Z,19.40
2023-08-12T03:51:54.269Z,19.40
2023-08-12T03:54:22.648Z,19.40
2023-08-12T03:56:52.358Z,19.50
2023-08-12T03:59:20.816Z,19.40
2023-08-12T04:01:49.206Z,19.40
2023-08-12T04:04:17.464Z,19.40
2023-08-12T04:06:45.771Z,19.50
2023-08-12T04:09:14.063Z,19.40
2023-08-12T04:11:43.022Z,19.40
2023-08-12T04:14:12.608Z,19.40
2023-08-12T04:16:41.473Z,19.40
2023-08-12T04:19:10.014Z,19.40
2023-08-12T04:21:38.397Z,19.30
2023-08-12T04:24:07.372Z,19.40
2023-08-12T04:26:35.619Z,19.30
2023-08-12T04:29:03.957Z,19.40
2023-08-12T04:31:33.897Z,19.30
2023-08-12T04:34:02.209Z,19.30
2023-08-12T04:36:30.474Z,19.30
2023-08-12T04:38:58.877Z,19.30
2023-08-12T04:41:27.114Z,19.30
2023-08-12T04:43:55.623Z,19.30
2023-08-12T04:46:24.365Z,19.30
2023-08-12T04:48:54.047Z,19.30
2023-08-12T04:51:22.302Z,19.30
2023-08-12T04:53:50.825Z,19.20
2023-08-12T04:56:19.379Z,19.30
2023-08-12T04:58:47.563Z,19.30
2023-08-12T05:01:16.013Z,19.20
2023-08-12T05:03:44.307Z,19.20
2023-08-12T05:06:13.810Z,19.30
2023-08-12T05:08:42.103Z,19.30
2023-08-12T05:11:10.379Z,19.30
2023-08-12T05:13:38.563Z,19.30
2023-08-12T05:16:07.222Z,19.30
2023-08-12T05:18:35.487Z,19.30
2023-08-12T05:21:04.205Z,19.40
2023-08-12T05:23:34.052Z,19.40
2023-08-12T05:26:02.249Z,19.30
2023-08-12T05:28:30.467Z,19.40
2023-08-12T05:30:58.893Z,19.40
2023-08-12T05:33:27.225Z,19.40
2023-08-12T05:35:55.912Z,19.40
2023-08-12T05:38:24.552Z,19.40
2023-08-12T05:40:54.131Z,19.40
2023-08-12T05:43:22.359Z,19.40
2023-08-12T05:45:51.071Z,19.40
2023-08-12T05:48:19.342Z,19.50
2023-08-12T05:50:47.580Z,19.50
2023-08-12T05:53:16.144Z,19.40
2023-08-12T05:55:44.417Z,19.40
2023-08-12T05:58:13.973Z,19.50
2023-08-12T06:00:46.556Z,19.50
2023-08-12T06:03:15.556Z,19.50
2023-08-12T06:05:47.081Z,19.50
2023-08-12T06:08:15.718Z,19.50
2023-08-12T06:10:44.239Z,19.50
2023-08-12T06:13:13.891Z,19.40
2023-08-12T06:15:42.409Z,19.30
2023-08-12T06:18:11.321Z,19.20
2023-08-12T06:20:39.685Z,19.10
2023-08-12T06:23:07.975Z,19.00
2023-08-12T06:25:37.499Z,18.70
2023-08-12T06:28:06.379Z,18.70
2023-08-12T06:30:36.033Z,18.60
2023-08-12T06:33:04.584Z,18.50
2023-08-12T06:35:32.855Z,18.50
2023-08-12T06:38:01.793Z,18.40
2023-08-12T06:40:31.966Z,18.40
2023-08-12T06:43:00.186Z,18.30
2023-08-12T06:45:28.619Z,18.20
2023-08-12T06:47:58.509Z,18.10
2023-08-12T06:50:26.888Z,18.10
2023-08-12T06:52:55.259Z,18.10
2023-08-12T06:55:23.728Z,18.10
2023-08-12T06:57:51.991Z,18.00
2023-08-12T07:00:20.204Z,18.00
2023-08-12T07:02:48.538Z,17.90
2023-08-12T07:05:18.422Z,17.90
2023-08-12T07:07:46.589Z,17.90
2023-08-12T07:10:14.880Z,17.90
2023-08-12T07:12:43.107Z,17.90
2023-08-12T07:15:13.120Z,17.90
2023-08-12T07:17:42.027Z,17.90
2023-08-12T07:20:10.865Z,18.00
2023-08-12T07:22:40.731Z,18.00
2023-08-12T07:25:09.731Z,18.10
2023-08-12T07:27:37.976Z,18.30
2023-08-12T07:30:07.369Z,18.60
2023-08-12T07:32:35.669Z,18.60
2023-08-12T07:35:03.932Z,18.50
2023-08-12T07:37:32.232Z,18.40
2023-08-12T07:40:02.001Z,18.50
2023-08-12T07:42:30.321Z,18.60
2023-08-12T07:44:58.615Z,18.70
2023-08-12T07:47:27.189Z,18.70
2023-08-12T07:49:55.418Z,18.80
2023-08-12T07:52:23.699Z,19.00
2023-08-12T07:54:52.051Z,19.10
2023-08-12T07:57:25.299Z,19.30
2023-08-12T07:59:53.785Z,19.40
2023-08-12T08:02:22.068Z,19.30
2023-08-12T08:04:50.502Z,19.40
2023-08-12T08:07:19.081Z,19.40
2023-08-12T08:09:47.308Z,19.50
2023-08-12T08:12:15.820Z,19.50
2023-08-12T08:14:45.660Z,19.50
2023-08-12T08:17:14.017Z,19.50
2023-08-12T08:19:42.405Z,19.70
2023-08-12T08:22:11.159Z,19.90
2023-08-12T08:24:39.887Z,20.20
2023-08-12T08:27:08.589Z,20.30
2023-08-12T08:29:37.027Z,20.40
2023-08-12T08:32:07.274Z,20.50
2023-08-12T08:34:35.738Z,20.60
2023-08-12T08:37:04.066Z,20.90
2023-08-12T08:39:32.732Z,21.10
2023-08-12T08:42:01.626Z,21.20
2023-08-12T08:44:32.735Z,21.10
2023-08-12T08:47:01.588Z,20.90
2023-08-12T08:49:33.081Z,20.80
2023-08-12T08:52:02.594Z,20.50
2023-08-12T08:54:30.946Z,20.40
2023-08-12T08:57:04.011Z,20.60
2023-08-12T08:59:37.086Z,20.90
2023-08-12T09:02:06.824Z,20.90
2023-08-12T09:04:37.163Z,20.80
2023-08-12T09:07:06.301Z,20.70
2023-08-12T09:09:36.453Z,20.70
2023-08-12T09:12:07.357Z,20.70
2023-08-12T09:14:36.525Z,20.80
2023-08-12T09:17:05.255Z,20.90
2023-08-12T09:19:33.495Z,20.90
2023-08-12T09:22:05.629Z,20.90
2023-08-12T09:24:34.149Z,21.00
2023-08-12T09:27:03.014Z,21.30
2023-08-12T09:29:32.705Z,22.10
2023-08-12T09:32:14.479Z,23.00
2023-08-12T09:34:49.844Z,23.70
2023-08-12T09:37:20.633Z,24.70
2023-08-12T09:39:49.892Z,25.10
2023-08-12T09:42:18.603Z,25.20
2023-08-12T09:44:47.691Z,25.40
2023-08-12T09:47:16.024Z,24.90
2023-08-12T09:49:44.220Z,24.20
2023-08-12T09:52:12.931Z,23.70
2023-08-12T09:54:44.868Z,23.40
2023-08-12T09:57:15.782Z,23.30
2023-08-12T09:59:45.445Z,23.30
2023-08-12T10:02:19.846Z,23.30
2023-08-12T10:04:51.945Z,23.10
2023-08-12T10:07:21.388Z,23.20
2023-08-12T10:09:51.550Z,23.60
2023-08-12T10:12:20.782Z,24.20
2023-08-12T10:14:50.744Z,24.60
2023-08-12T10:17:37.018Z,24.70
2023-08-12T10:20:10.182Z,24.70
2023-08-12T10:22:41.165Z,24.60
2023-08-12T10:25:11.690Z,24.50
2023-08-12T10:27:40.065Z,24.70
2023-08-12T10:30:10.463Z,25.00
2023-08-12T10:32:39.793Z,25.00
2023-08-12T10:35:09.546Z,25.70
2023-08-12T10:37:38.033Z,26.60
2023-08-12T10:40:08.603Z,26.50
2023-08-12T10:42:45.347Z,26.20
2023-08-12T10:45:14.757Z,25.50
2023-08-12T10:47:50.457Z,25.50
2023-08-12T10:50:23.300Z,26.00
2023-08-12T10:52:55.326Z,26.70
2023-08-12T10:55:25.288Z,27.30
2023-08-12T10:57:57.596Z,27.20
2023-08-12T11:00:27.384Z,27.50
2023-08-12T11:02:57.392Z,28.30
2023-08-12T11:05:26.499Z,28.40
2023-08-12T11:07:59.917Z,28.30
2023-08-12T11:10:31.936Z,28.60
2023-08-12T11:13:04.466Z,28.30
2023-08-12T11:15:34.854Z,28.40
2023-08-12T11:18:05.683Z,28.50
2023-08-12T11:20:34.509Z,28.70
2023-08-12T11:23:03.204Z,28.70
2023-08-12T11:25:33.019Z,28.90
2023-08-12T11:28:06.670Z,28.70
2023-08-12T11:30:35.288Z,28.50
2023-08-12T11:33:05.054Z,28.50
2023-08-12T11:35:33.402Z,28.70
2023-08-12T11:38:04.618Z,28.90
2023-08-12T11:40:33.056Z,28.90
2023-08-12T11:43:01.278Z,28.80
2023-08-12T11:45:31.116Z,28.80
2023-08-12T11:47:59.625Z,28.70
2023-08-12T11:50:29.151Z,28.50
2023-08-12T11:52:59.938Z,28.40
2023-08-12T11:55:28.690Z,28.50
2023-08-12T11:57:57.028Z,28.30
2023-08-12T12:00:28.372Z,28.20
2023-08-12T12:02:59.121Z,28.00
2023-08-12T12:05:30.942Z,27.50
2023-08-12T12:08:00.771Z,27.60
2023-08-12T12:10:34.356Z,27.20
2023-08-12T12:13:06.810Z,26.90
2023-08-12T12:15:56.665Z,26.70
2023-08-12T12:18:28.093Z,26.60
2023-08-12T12:20:58.212Z,26.70
2023-08-12T12:23:31.585Z,27.10
2023-08-12T12:26:02.030Z,27.40
2023-08-12T12:28:30.815Z,27.30
2023-08-12T12:30:59.397Z,26.70
2023-08-12T12:33:31.537Z,26.40
2023-08-12T12:36:01.254Z,26.40
2023-08-12T12:38:31.578Z,26.10
2023-08-12T12:41:00.704Z,26.00
2023-08-12T12:43:28.934Z,26.10
2023-08-12T12:45:57.262Z,26.20
2023-08-12T12:48:25.855Z,25.90
2023-08-12T12:50:55.459Z,25.80
2023-08-12T12:53:23.763Z,26.10
2023-08-12T12:55:52.863Z,26.30
2023-08-12T12:58:23.558Z,26.30
2023-08-12T13:00:51.920Z,26.20
2023-08-12T13:03:20.564Z,26.00
2023-08-12T13:05:48.919Z,25.80
2023-08-12T13:08:18.655Z,25.70
2023-08-12T13:10:47.474Z,25.80
2023-08-12T13:13:16.918Z,25.70
2023-08-12T13:15:45.328Z,25.50
2023-08-12T13:18:14.288Z,25.30
2023-08-12T13:20:42.513Z,25.20
2023-08-12T13:23:10.754Z,25.10
2023-08-12T13:25:41.105Z,25.10
2023-08-12T13:28:09.541Z,25.20
2023-08-12T13:30:39.266Z,25.30
2023-08-12T13:33:07.848Z,25.50
2023-08-12T13:35:36.069Z,25.70
2023-08-12T13:38:04.560Z,25.90
2023-08-12T13:40:33.290Z,25.90
2023-08-12T13:43:03.126Z,26.00
2023-08-12T13:45:31.361Z,26.10
2023-08-12T13:47:59.800Z,26.00
2023-08-12T13:50:28.823Z,26.00
2023-08-12T13:52:57.027Z,25.80
2023-08-12T13:55:25.615Z,25.80
2023-08-12T13:57:54.492Z,25.70
2023-08-12T14:00:25.792Z,25.70
2023-08-12T14:02:55.234Z,25.90
2023-08-12T14:05:23.723Z,26.20
2023-08-12T14:07:52.020Z,26.20
2023-08-12T14:10:20.560Z,26.30
2023-08-12T14:12:51.976Z,26.40
2023-08-12T14:15:21.455Z,26.60
2023-08-12T14:18:09.792Z,26.60
2023-08-12T14:20:38.120Z,26.60
2023-08-12T14:23:06.591Z,26.30
2023-08-12T14:25:34.783Z,26.40
2023-08-12T14:28:04.116Z,26.50
2023-08-12T14:30:32.585Z,26.70
2023-08-12T14:33:01.106Z,26.60
2023-08-12T14:35:30.826Z,26.40
2023-08-12T14:37:59.070Z,26.10
2023-08-12T14:40:27.387Z,26.00
2023-08-12T14:42:55.818Z,26.00
2023-08-12T14:45:24.226Z,26.20
2023-08-12T14:47:52.556Z,26.70
2023-08-12T14:50:21.088Z,27.20
2023-08-12T14:52:50.726Z,27.50
2023-08-12T14:55:19.087Z,27.40
2023-08-12T14:57:47.446Z,27.30
2023-08-12T15:00:16.699Z,27.20
2023-08-12T15:02:45.012Z,26.90
2023-08-12T15:05:13.498Z,26.60
2023-08-12T15:07:41.870Z,26.20
2023-08-12T15:10:12.468Z,26.40
2023-08-12T15:12:41.469Z,26.80
2023-08-12T15:15:10.162Z,26.70
2023-08-12T15:17:38.396Z,26.50
2023-08-12T15:20:07.963Z,26.50
2023-08-12T15:22:36.250Z,26.50
2023-08-12T15:25:04.677Z,26.70
2023-08-12T15:27:34.672Z,26.90
2023-08-12T15:30:03.075Z,26.70
2023-08-12T15:32:32.332Z,26.50
2023-08-12T15:35:00.998Z,26.60
2023-08-12T15:37:29.988Z,26.50
2023-08-12T15:39:58.207Z,26.30
2023-08-12T15:42:26.659Z,26.10
2023-08-12T15:44:56.394Z,25.90
2023-08-12T15:47:24.630Z,25.90
2023-08-12T15:49:53.063Z,26.30
2023-08-12T15:52:21.501Z,26.40
2023-08-12T15:54:49.742Z,26.50
2023-08-12T15:57:18.215Z,26.50
2023-08-12T15:59:47.000Z,26.40
2023-08-12T16:02:17.135Z,26.50
2023-08-12T16:04:45.941Z,26.80
2023-08-12T16:07:14.230Z,27.10
2023-08-12T16:09:42.582Z,27.20
2023-08-12T16:12:11.466Z,27.20
2023-08-12T16:14:44.904Z,27.30
2023-08-12T16:17:13.367Z,27.40
2023-08-12T16:19:46.431Z,27.00
2023-08-12T16:22:15.503Z,26.90
2023-08-12T16:24:53.291Z,27.00
2023-08-12T16:27:24.756Z,26.80
2023-08-12T16:29:55.831Z,26.60
2023-08-12T16:32:24.134Z,26.50
2023-08-12T16:34:53.980Z,26.50
2023-08-12T16:37:22.411Z,26.50
2023-08-12T16:39:52.886Z,26.50
2023-08-12T16:42:23.045Z,26.20
2023-08-12T16:44:52.482Z,26.20
2023-08-12T16:47:20.775Z,26.20
2023-08-12T16:49:49.139Z,26.10
2023-08-12T16:52:18.950Z,26.20
2023-08-12T16:54:47.117Z,26.30
2023-08-12T16:57:15.514Z,26.40
2023-08-12T16:59:43.705Z,26.20
2023-08-12T17:02:12.316Z,25.80
2023-08-12T17:04:41.518Z,25.60
2023-08-12T17:07:09.846Z,25.30
2023-08-12T17:09:39.605Z,25.40
2023-08-12T17:12:09.673Z,25.30
2023-08-12T17:14:37.885Z,25.20
2023-08-12T17:17:06.207Z,25.10
2023-08-12T17:19:36.545Z,24.90
2023-08-12T17:22:05.223Z,24.60
2023-08-12T17:24:34.168Z,24.50
2023-08-12T17:27:03.967Z,24.60
2023-08-12T17:29:32.408Z,24.40
2023-08-12T17:32:00.638Z,24.30
2023-08-12T17:34:28.887Z,24.20
2023-08-12T17:36:57.258Z,24.10
2023-08-12T17:39:25.726Z,24.10
2023-08-12T17:41:54.242Z,24.10
2023-08-12T17:44:24.026Z,24.00
2023-08-12T17:46:52.276Z,24.00
2023-08-12T17:49:20.934Z,23.90
2023-08-12T17:51:49.105Z,23.90
2023-08-12T17:54:17.375Z,23.80
2023-08-12T17:56:45.657Z,23.80
2023-08-12T17:59:14.016Z,23.70
2023-08-12T18:01:43.612Z,23.60
2023-08-12T18:04:11.964Z,23.50
2023-08-12T18:06:40.540Z,23.40
2023-08-12T18:09:09.526Z,23.30
2023-08-12T18:11:38.078Z,23.30
2023-08-12T18:14:06.592Z,23.20
2023-08-12T18:16:35.646Z,23.00
2023-08-12T18:19:05.781Z,22.90
2023-08-12T18:21:33.982Z,22.90
2023-08-12T18:24:02.316Z,22.90
2023-08-12T18:26:30.802Z,22.80
2023-08-12T18:28:59.078Z,22.60
2023-08-12T18:31:27.340Z,22.50
2023-08-12T18:33:55.768Z,22.50
2023-08-12T18:36:25.381Z,22.40
2023-08-12T18:38:53.658Z,22.40
2023-08-12T18:41:22.020Z,22.30
2023-08-12T18:43:50.240Z,22.10
2023-08-12T18:46:18.508Z,22.10
2023-08-12T18:48:46.827Z,22.00
2023-08-12T18:51:15.166Z,21.90
2023-08-12T18:53:45.133Z,21.80
2023-08-12T18:56:13.622Z,21.70
2023-08-12T18:58:41.900Z,21.60
2023-08-12T19:01:10.248Z,21.60
2023-08-12T19:03:38.895Z,21.50
2023-08-12T19:06:07.166Z,21.50
2023-08-12T19:08:35.464Z,21.40
2023-08-12T19:11:05.776Z,21.30
2023-08-12T19:13:34.946Z,21.20
2023-08-12T19:16:03.358Z,21.10
2023-08-12T19:18:31.744Z,21.00
2023-08-12T19:21:00.105Z,21.00
2023-08-12T19:23:28.365Z,20.90
2023-08-12T19:25:56.742Z,20.90
2023-08-12T19:28:26.745Z,20.80
2023-08-12T19:30:54.976Z,20.70
2023-08-12T19:33:23.408Z,20.70
2023-08-12T19:35:51.606Z,20.60
2023-08-12T19:38:19.933Z,20.60
2023-08-12T19:40:48.384Z,20.50
2023-08-12T19:43:16.703Z,20.50
2023-08-12T19:45:46.358Z,20.40
2023-08-12T19:48:14.668Z,20.40
2023-08-12T19:50:44.153Z,20.30
2023-08-12T19:53:12.563Z,20.30
2023-08-12T19:55:41.021Z,20.20
2023-08-12T19:58:11.376Z,20.20
2023-08-12T20:00:39.758Z,20.00
2023-08-12T20:03:09.982Z,19.90
2023-08-12T20:05:38.263Z,19.80
2023-08-12T20:08:07.358Z,19.70
2023-08-12T20:10:36.150Z,19.70
2023-08-12T20:13:04.622Z,19.60
2023-08-12T20:15:33.183Z,19.50
2023-08-12T20:18:01.614Z,19.40
2023-08-12T20:20:32.334Z,19.30
2023-08-12T20:23:05.917Z,19.20
2023-08-12T20:25:37.888Z,19.10
2023-08-12T20:28:06.799Z,19.00
2023-08-12T20:30:35.299Z,19.00
2023-08-12T20:33:04.836Z,19.00
2023-08-12T20:35:34.620Z,19.10
2023-08-12T20:38:03.046Z,19.10
2023-08-12T20:40:31.410Z,19.10
2023-08-12T20:43:00.188Z,19.00
2023-08-12T20:45:28.597Z,19.00
2023-08-12T20:47:56.931Z,19.00
2023-08-12T20:50:25.296Z,18.90
2023-08-12T20:52:57.602Z,18.80
2023-08-12T20:55:25.876Z,18.80
2023-08-12T20:57:54.324Z,18.70
2023-08-12T21:00:22.979Z,18.70
2023-08-12T21:02:51.370Z,18.60
2023-08-12T21:05:20.810Z,18.50
2023-08-12T21:07:49.061Z,18.50
2023-08-12T21:10:18.866Z,18.40
2023-08-12T21:12:47.302Z,18.40
2023-08-12T21:15:15.626Z,18.30
2023-08-12T21:17:43.892Z,18.30
2023-08-12T21:20:13.058Z,18.30
2023-08-12T21:22:42.177Z,18.20
2023-08-12T21:25:11.009Z,18.10
2023-08-12T21:27:40.857Z,18.10
2023-08-12T21:30:10.030Z,18.00
2023-08-12T21:32:38.258Z,17.90
2023-08-12T21:35:07.485Z,17.90
2023-08-12T21:37:35.686Z,17.90
2023-08-12T21:40:03.971Z,17.80
2023-08-12T21:42:32.352Z,17.80
2023-08-12T21:45:02.009Z,17.80
2023-08-12T21:47:30.367Z,17.80
2023-08-12T21:49:58.887Z,17.70
2023-08-12T21:52:27.204Z,17.70
2023-08-12T21:54:55.468Z,17.70
2023-08-12T21:57:23.694Z,17.70
2023-08-12T21:59:52.012Z,17.70
2023-08-12T22:02:26.700Z,17.60
2023-08-12T22:04:55.446Z,17.60
2023-08-12T22:07:24.043Z,17.60
2023-08-12T22:09:52.755Z,17.60
2023-08-12T22:12:21.020Z,17.50
2023-08-12T22:14:49.306Z,17.50
2023-08-12T22:17:17.877Z,17.50
2023-08-12T22:19:48.910Z,17.50
2023-08-12T22:22:20.382Z,17.50
2023-08-12T22:24:49.255Z,17.50
2023-08-12T22:27:17.652Z,17.50
2023-08-12T22:29:45.920Z,17.40
2023-08-12T22:32:14.555Z,17.40
2023-08-12T22:34:43.035Z,17.30
2023-08-12T22:37:12.673Z,17.30
2023-08-12T22:39:41.972Z,17.30
2023-08-12T22:42:10.244Z,17.30
2023-08-12T22:44:38.610Z,17.20
2023-08-12T22:47:07.594Z,17.20
2023-08-12T22:49:35.802Z,17.20
2023-08-12T22:52:04.110Z,17.10
2023-08-12T22:54:33.976Z,17.10
2023-08-12T22:57:02.435Z,17.10
2023-08-12T22:59:30.579Z,17.00
2023-08-12T23:01:59.026Z,17.00
2023-08-12T23:04:27.301Z,17.00
2023-08-12T23:06:55.556Z,17.00
2023-08-12T23:09:23.881Z,16.90
2023-08-12T23:11:53.477Z,16.90
2023-08-12T23:14:21.673Z,16.90
2023-08-12T23:16:50.152Z,16.90
2023-08-12T23:19:18.544Z,16.90
2023-08-12T23:21:46.836Z,16.80
2023-08-12T23:24:15.148Z,16.80
2023-08-12T23:26:43.429Z,16.80
2023-08-12T23:29:13.286Z,16.80
2023-08-12T23:31:41.617Z,16.80
2023-08-12T23:34:10.000Z,16.80
2023-08-12T23:36:38.267Z,16.80
2023-08-12T23:39:07.054Z,16.70
2023-08-12T23:41:35.497Z,16.70
2023-08-12T23:44:03.763Z,16.70
2023-08-12T23:46:33.433Z,16.70
2023-08-12T23:49:01.922Z,16.60
2023-08-12T23:51:30.106Z,16.60
2023-08-12T23:53:58.384Z,16.60
2023-08-12T23:56:26.721Z,16.60
2023-08-12T23:58:54.885Z,16.60
